Time;durP1;ratioP1;P1;durP2;ratioP2;P2;SDS_P1;SDS_P2;PMS_P1;PMS_P2;Temp;Humidity;BMP_temperature;BMP_pressure;BME280_temperature;BME280_humidity;BME280_pressure;Samples;Min_cycle;Max_cycle;Signal;HPM_P1;HPM_P2
2021/12/07 00:00:22;;;;;;;1.30;1.20;;;18.30;46.30;;;;;;4980664;28;20226;-29
2021/12/07 00:02:49;;;;;;;1.30;1.20;;;18.30;46.20;;;;;;4981065;28;20229;-25
2021/12/07 00:05:14;;;;;;;1.50;1.23;;;18.20;46.30;;;;;;4980636;28;20203;-25
2021/12/07 00:07:43;;;;;;;2.50;1.20;;;18.20;46.30;;;;;;4980528;28;20277;-24
2021/12/07 00:10:11;;;;;;;1.30;1.20;;;18.20;46.20;;;;;;4963812;28;20588;-27
2021/12/07 00:12:39;;;;;;;1.20;1.10;;;18.30;46.30;;;;;;4980252;28;20201;-25
2021/12/07 00:15:08;;;;;;;1.27;1.17;;;18.20;46.20;;;;;;4963995;28;20441;-24
2021/12/07 00:17:35;;;;;;;1.77;1.30;;;18.20;46.30;;;;;;4979179;28;20587;-24
2021/12/07 00:20:06;;;;;;;1.27;1.10;;;18.20;46.30;;;;;;4980480;28;20191;-23
2021/12/07 00:22:32;;;;;;;1.40;1.10;;;18.20;46.30;;;;;;4980620;28;20185;-25
2021/12/07 00:24:57;;;;;;;1.20;1.10;;;18.10;46.40;;;;;;4963680;28;20206;-25
2021/12/07 00:27:23;;;;;;;1.30;1.10;;;18.10;46.30;;;;;;4980751;28;20215;-23
2021/12/07 00:29:48;;;;;;;1.27;1.17;;;18.10;46.40;;;;;;4964083;28;20213;-24
2021/12/07 00:32:31;;;;;;;1.00;0.90;;;18.10;46.30;;;;;;4964088;28;20231;-25
2021/12/07 00:37:50;;;;;;;1.20;1.10;;;18.00;46.40;;;;;;4979906;28;20182;-25
2021/12/07 00:40:19;;;;;;;1.10;1.00;;;18.00;46.40;;;;;;4979543;28;20231;-25
2021/12/07 00:42:46;;;;;;;2.03;1.20;;;18.00;46.50;;;;;;4963160;28;20191;-24
2021/12/07 00:45:16;;;;;;;0.90;0.90;;;17.90;46.50;;;;;;4963623;28;20248;-23
2021/12/07 00:47:42;;;;;;;0.83;0.83;;;17.90;46.50;;;;;;4979856;28;20549;-25
2021/12/07 00:50:09;;;;;;;1.10;1.00;;;17.90;46.60;;;;;;4980161;28;20615;-26
2021/12/07 00:52:35;;;;;;;1.07;0.97;;;17.90;46.60;;;;;;4980111;28;20199;-26
2021/12/07 00:55:09;;;;;;;1.00;0.90;;;17.90;46.60;;;;;;4980251;28;20197;-25
2021/12/07 00:57:35;;;;;;;0.97;0.90;;;17.90;46.70;;;;;;4962841;28;20473;-26
2021/12/07 01:00:03;;;;;;;0.87;0.87;;;17.80;46.60;;;;;;4962577;28;20603;-25
2021/12/07 01:02:29;;;;;;;1.87;0.93;;;17.80;46.60;;;;;;4962110;28;20605;-25
2021/12/07 01:05:02;;;;;;;0.83;0.83;;;17.80;46.70;;;;;;4962710;28;20590;-25
2021/12/07 01:26:31;;;;;;;1.10;1.00;;;17.70;47.00;;;;;;4979095;28;20267;-23
2021/12/07 01:28:57;;;;;;;2.23;0.80;;;17.70;47.00;;;;;;4979383;28;20614;-23
2021/12/07 01:31:31;;;;;;;0.90;0.80;;;17.70;47.00;;;;;;4979022;28;20195;-25
2021/12/07 01:50:26;;;;;;;0.77;0.70;;;17.60;47.20;;;;;;4972416;28;20198;-27
2021/12/07 01:59:32;;;;;;;0.70;0.70;;;17.60;47.40;;;;;;4978939;28;20494;-25
2021/12/07 02:01:00;;;;;;;0.70;0.70;;;17.50;47.40;;;;;;4979194;28;20231;-24
2021/12/07 02:03:27;;;;;;;0.80;0.80;;;17.50;47.50;;;;;;4978888;28;20187;-25
2021/12/07 02:05:53;;;;;;;0.70;0.70;;;17.50;47.50;;;;;;4962268;28;20457;-24
2021/12/07 02:08:19;;;;;;;0.90;0.90;;;17.50;47.50;;;;;;4961634;28;20230;-25
2021/12/07 02:10:46;;;;;;;0.87;0.87;;;17.50;47.60;;;;;;4960778;28;20542;-26
2021/12/07 02:16:06;;;;;;;0.97;0.90;;;17.50;47.60;;;;;;4956269;28;20193;-24
2021/12/07 02:18:32;;;;;;;0.87;0.87;;;17.40;47.70;;;;;;4961388;28;20192;-26
2021/12/07 02:21:16;;;;;;;1.10;0.90;;;17.40;47.80;;;;;;4961766;28;20202;-24
2021/12/07 02:23:42;;;;;;;0.80;0.80;;;17.40;47.80;;;;;;4978486;28;20171;-26
2021/12/07 02:26:08;;;;;;;0.70;0.70;;;17.30;47.90;;;;;;4978819;28;20768;-25
2021/12/07 02:28:38;;;;;;;0.70;0.70;;;17.30;48.00;;;;;;4978545;28;20216;-24
2021/12/07 02:31:04;;;;;;;1.07;0.97;;;17.30;48.00;;;;;;4961200;28;20205;-25
2021/12/07 02:33:31;;;;;;;0.87;0.80;;;17.20;48.10;;;;;;4978110;28;20274;-24
2021/12/07 02:35:57;;;;;;;0.70;0.70;;;17.20;48.10;;;;;;4961801;28;20195;-25
2021/12/07 02:38:24;;;;;;;1.00;0.90;;;17.20;48.20;;;;;;4961729;28;20200;-27
2021/12/07 02:40:50;;;;;;;0.80;0.80;;;17.20;48.30;;;;;;4965019;28;20201;-23
2021/12/07 02:43:16;;;;;;;1.00;0.90;;;17.20;48.40;;;;;;4966352;28;20204;-24
2021/12/07 02:45:41;;;;;;;0.70;0.70;;;17.20;48.40;;;;;;4965759;28;20610;-25
2021/12/07 02:48:08;;;;;;;0.70;0.70;;;17.10;48.50;;;;;;4965711;28;20216;-23
2021/12/07 02:50:34;;;;;;;0.90;0.90;;;17.10;48.50;;;;;;4982905;28;20206;-24
2021/12/07 02:53:00;;;;;;;0.77;0.77;;;17.00;48.60;;;;;;4982139;28;20205;-23
2021/12/07 02:55:26;;;;;;;0.90;0.90;;;17.00;48.60;;;;;;4965411;28;20243;-25
2021/12/07 02:57:56;;;;;;;0.70;0.70;;;17.00;48.70;;;;;;4965668;28;20191;-23
2021/12/07 03:00:26;;;;;;;0.80;0.80;;;17.00;48.80;;;;;;4965373;28;20259;-22
2021/12/07 03:03:04;;;;;;;0.70;0.70;;;16.90;48.90;;;;;;4965017;28;20356;-25
2021/12/07 03:26:55;;;;;;;0.73;0.73;;;16.70;49.50;;;;;;4981949;28;20203;-24
2021/12/07 03:29:21;;;;;;;0.90;0.90;;;16.60;49.50;;;;;;4981833;28;20216;-22
2021/12/07 03:31:51;;;;;;;0.80;0.80;;;16.60;49.60;;;;;;4981814;28;20193;-23
2021/12/07 03:34:17;;;;;;;0.70;0.70;;;16.60;49.70;;;;;;4964851;28;20215;-25
2021/12/07 03:36:43;;;;;;;0.80;0.80;;;16.50;49.70;;;;;;4964988;28;20468;-28
2021/12/07 03:39:08;;;;;;;1.20;0.80;;;16.50;49.80;;;;;;4981570;28;20811;-23
2021/12/07 03:41:36;;;;;;;1.67;0.87;;;16.50;49.90;;;;;;4981654;28;20224;-24
2021/12/07 03:44:03;;;;;;;0.63;0.63;;;16.40;49.90;;;;;;4982070;28;20188;-25
2021/12/07 03:46:28;;;;;;;0.80;0.80;;;16.40;50.00;;;;;;4981834;28;20206;-24
2021/12/07 03:48:54;;;;;;;1.03;0.97;;;16.40;50.10;;;;;;4982313;28;20254;-26
2021/12/07 03:51:20;;;;;;;0.70;0.70;;;16.30;50.10;;;;;;4980355;28;20255;-22
2021/12/07 03:53:46;;;;;;;0.87;0.87;;;16.30;50.20;;;;;;4964853;28;20206;-24
2021/12/07 03:56:12;;;;;;;0.93;0.90;;;16.30;50.30;;;;;;4981188;28;20604;-26
2021/12/07 03:58:39;;;;;;;1.00;0.90;;;16.20;50.30;;;;;;4964423;28;20671;-23
2021/12/07 04:01:07;;;;;;;0.83;0.83;;;16.20;50.40;;;;;;4980556;28;20227;-25
2021/12/07 04:03:35;;;;;;;1.47;1.00;;;16.20;50.50;;;;;;4948262;28;20247;-22
2021/12/07 04:06:05;;;;;;;0.70;0.70;;;16.20;50.50;;;;;;4981377;28;20191;-22
2021/12/07 04:08:34;;;;;;;0.80;0.80;;;16.40;50.70;;;;;;4964234;28;20213;-23
2021/12/07 04:11:00;;;;;;;0.83;0.80;;;19.40;47.30;;;;;;4980706;28;20582;-23
2021/12/07 04:13:26;;;;;;;0.90;0.90;;;20.10;44.90;;;;;;4980867;28;20620;-24
2021/12/07 04:15:52;;;;;;;0.70;0.70;;;20.20;44.30;;;;;;4981030;28;20194;-24
2021/12/07 04:18:18;;;;;;;0.90;0.90;;;20.30;44.20;;;;;;4964440;28;20204;-24
2021/12/07 04:20:44;;;;;;;1.00;0.90;;;20.60;43.80;;;;;;4980776;28;20681;-26
2021/12/07 04:23:09;;;;;;;2.00;1.00;;;20.90;43.50;;;;;;4963846;28;20210;-24
2021/12/07 04:25:35;;;;;;;2.00;0.93;;;21.30;43.00;;;;;;4980755;28;20214;-25
2021/12/07 04:28:02;;;;;;;0.70;0.70;;;21.70;42.60;;;;;;4980096;28;20234;-22
2021/12/07 04:30:34;;;;;;;1.17;1.07;;;22.10;42.20;;;;;;4964066;28;20573;-26
2021/12/07 04:33:02;;;;;;;0.90;0.90;;;22.50;42.20;;;;;;4963818;28;20211;-24
2021/12/07 04:35:28;;;;;;;1.13;0.80;;;22.80;41.40;;;;;;4963449;28;20197;-24
2021/12/07 04:37:56;;;;;;;1.00;0.90;;;22.80;41.20;;;;;;4963759;28;20181;-24
2021/12/07 04:40:25;;;;;;;1.20;1.00;;;22.90;41.10;;;;;;4979843;28;20198;-24
2021/12/07 04:42:51;;;;;;;0.93;0.83;;;23.10;41.00;;;;;;4962734;28;20659;-24
2021/12/07 04:59:06;;;;;;;0.93;0.93;;;24.00;40.20;;;;;;4979981;28;20205;-24
2021/12/07 05:01:33;;;;;;;0.83;0.80;;;24.10;40.10;;;;;;4963094;28;20205;-26
2021/12/07 05:04:04;;;;;;;0.70;0.70;;;24.10;40.10;;;;;;4979409;28;20205;-25
2021/12/07 05:06:30;;;;;;;1.30;1.00;;;24.00;40.20;;;;;;4963013;28;20195;-24
2021/12/07 05:09:02;;;;;;;1.17;1.00;;;23.80;40.30;;;;;;4979849;28;20266;-25
2021/12/07 05:11:49;;;;;;;1.57;0.93;;;23.80;40.40;;;;;;4962824;28;20195;-25
2021/12/07 05:14:20;;;;;;;1.00;1.00;;;23.90;40.30;;;;;;4979866;28;20257;-23
2021/12/07 05:38:32;;;;;;;1.57;1.10;;;21.80;42.40;;;;;;4978904;28;20499;-25
2021/12/07 05:40:58;;;;;;;1.80;1.30;;;21.50;42.80;;;;;;4979535;28;20200;-25
2021/12/07 05:43:24;;;;;;;1.67;1.10;;;21.20;43.00;;;;;;4979382;28;20611;-25
2021/12/07 05:45:50;;;;;;;1.47;1.10;;;21.00;43.30;;;;;;4962085;28;20795;-26
2021/12/07 05:48:15;;;;;;;1.40;1.10;;;20.70;43.60;;;;;;4961383;28;20317;-25
2021/12/07 05:50:42;;;;;;;1.97;1.17;;;20.50;43.80;;;;;;4961887;28;20227;-25
2021/12/07 05:53:10;;;;;;;1.07;0.97;;;20.30;44.10;;;;;;4960946;28;20490;-23
2021/12/07 05:55:38;;;;;;;9.73;1.40;;;20.30;44.30;;;;;;4961666;28;20204;-24
2021/12/07 05:58:04;;;;;;;1.43;1.03;;;20.60;44.10;;;;;;4978213;28;20198;-25
2021/12/07 06:00:32;;;;;;;2.80;1.17;;;21.50;43.50;;;;;;4961612;28;20202;-26
2021/12/07 06:03:07;;;;;;;1.40;1.10;;;22.80;42.40;;;;;;4977845;28;20251;-25
2021/12/07 06:05:34;;;;;;;1.77;1.10;;;23.90;41.10;;;;;;4961761;28;20369;-25
2021/12/07 06:08:00;;;;;;;1.43;1.23;;;24.10;40.50;;;;;;4978042;28;20273;-25
2021/12/07 06:10:27;;;;;;;1.67;1.30;;;24.30;40.20;;;;;;4977865;28;20270;-25
2021/12/07 06:12:54;;;;;;;1.07;0.97;;;24.30;40.10;;;;;;4977598;28;20194;-24
2021/12/07 06:15:22;;;;;;;1.80;1.00;;;24.00;40.20;;;;;;4978190;28;20205;-25
2021/12/07 06:17:48;;;;;;;2.27;1.13;;;23.90;40.50;;;;;;4961218;28;20254;-25
2021/12/07 06:20:15;;;;;;;1.83;1.27;;;23.70;40.70;;;;;;4960855;28;20293;-25
2021/12/07 06:22:41;;;;;;;2.17;1.40;;;23.60;40.90;;;;;;4977406;28;20188;-26
2021/12/07 06:25:08;;;;;;;4.53;1.20;;;23.70;40.90;;;;;;4960953;28;20210;-24
2021/12/07 06:27:43;;;;;;;1.40;1.00;;;23.80;40.80;;;;;;4960609;28;20265;-25
2021/12/07 06:30:11;;;;;;;3.10;1.20;;;23.90;40.90;;;;;;4960772;28;20591;-24
2021/12/07 06:32:37;;;;;;;1.93;1.20;;;23.80;40.90;;;;;;4960372;28;20315;-23
2021/12/07 06:35:05;;;;;;;1.30;1.20;;;23.60;41.30;;;;;;4960100;28;20218;-28
2021/12/07 06:37:31;;;;;;;2.93;1.27;;;23.40;41.20;;;;;;4948047;29;20540;-21
2021/12/07 06:39:57;;;;;;;3.10;1.30;;;23.30;41.40;;;;;;4958222;29;20199;-23
2021/12/07 06:42:22;;;;;;;1.93;1.20;;;23.10;41.60;;;;;;4957640;29;20203;-23
2021/12/07 06:44:48;;;;;;;2.07;1.43;;;23.00;41.80;;;;;;4957762;29;20215;-26
2021/12/07 06:47:14;;;;;;;2.67;1.33;;;22.80;41.90;;;;;;4958068;29;20218;-25
2021/12/07 06:49:39;;;;;;;3.50;1.50;;;22.70;42.00;;;;;;4941396;29;20375;-22
2021/12/07 06:52:05;;;;;;;2.17;1.27;;;22.60;42.20;;;;;;4956756;29;20191;-25
2021/12/07 06:54:31;;;;;;;2.40;1.37;;;22.40;42.30;;;;;;4941442;29;20214;-26
2021/12/07 06:56:57;;;;;;;2.20;1.40;;;22.10;42.50;;;;;;4957373;29;20587;-26
2021/12/07 06:59:31;;;;;;;3.73;1.40;;;22.00;42.70;;;;;;4940464;29;20207;-25
2021/12/07 07:01:57;;;;;;;2.80;1.20;;;21.80;43.00;;;;;;4957363;29;20724;-24
2021/12/07 07:04:23;;;;;;;2.10;1.30;;;21.50;43.20;;;;;;4940709;29;20210;-25
2021/12/07 07:06:50;;;;;;;3.57;1.47;;;21.30;43.40;;;;;;4941434;29;20378;-24
2021/12/07 07:09:20;;;;;;;3.87;1.57;;;21.20;43.60;;;;;;4957656;29;20215;-21
2021/12/07 07:11:45;;;;;;;2.53;1.30;;;21.40;43.60;;;;;;4957567;29;20180;-29
2021/12/07 07:14:14;;;;;;;3.03;1.50;;;21.70;43.30;;;;;;4941094;29;20279;-26
2021/12/07 07:16:40;;;;;;;1.83;1.47;;;22.40;42.90;;;;;;4957397;29;20188;-24
2021/12/07 07:19:12;;;;;;;1.93;1.20;;;23.00;42.20;;;;;;4940937;29;20199;-25
2021/12/07 07:21:37;;;;;;;4.47;1.23;;;23.60;41.70;;;;;;4939758;29;20636;-24
2021/12/07 07:24:03;;;;;;;2.40;1.50;;;24.20;41.00;;;;;;4941301;29;20210;-25
2021/12/07 07:26:29;;;;;;;2.70;1.30;;;24.50;40.60;;;;;;4942917;29;20639;-25
2021/12/07 07:28:58;;;;;;;2.83;1.50;;;24.60;40.50;;;;;;4960984;29;20219;-24
2021/12/07 07:31:40;;;;;;;3.23;1.30;;;24.50;40.40;;;;;;4944328;29;20213;-25
2021/12/07 07:34:06;;;;;;;3.00;1.23;;;24.50;40.60;;;;;;4960876;29;20290;-25
2021/12/07 07:36:41;;;;;;;2.47;1.60;;;24.40;40.70;;;;;;4960548;29;20263;-24
2021/12/07 07:39:09;;;;;;;2.00;1.10;;;24.40;40.70;;;;;;4960721;29;20199;-25
2021/12/07 07:42:03;;;;;;;1.67;1.27;;;24.20;40.80;;;;;;4944356;29;20213;-24
2021/12/07 07:44:41;;;;;;;2.00;1.33;;;24.00;41.00;;;;;;4960283;29;20207;-24
2021/12/07 07:47:25;;;;;;;2.80;1.43;;;23.90;41.20;;;;;;4960872;29;20215;-26
2021/12/07 07:50:00;;;;;;;4.63;1.57;;;23.80;41.40;;;;;;4943824;29;20222;-26
2021/12/07 07:52:28;;;;;;;2.47;1.37;;;23.80;41.40;;;;;;4944218;29;20191;-27
2021/12/07 07:56:10;;;;;;;2.03;1.40;;;23.70;41.50;;;;;;4944454;29;20206;-25
2021/12/07 07:58:58;;;;;;;2.53;1.70;;;23.50;41.60;;;;;;4902307;29;20639;-25
2021/12/07 08:02:06;;;;;;;2.37;1.43;;;23.20;41.80;;;;;;4901467;29;20203;-24
2021/12/07 08:04:36;;;;;;;4.23;1.60;;;23.00;42.10;;;;;;4901627;29;20193;-23
2021/12/07 08:10:21;;;;;;;4.07;1.73;;;22.60;42.70;;;;;;4901323;29;20244;-25
2021/12/07 08:16:15;;;;;;;4.67;1.83;;;22.10;43.10;;;;;;4922890;29;20244;-24
2021/12/07 08:18:50;;;;;;;2.60;1.70;;;22.00;43.30;;;;;;4954008;29;20195;-27
2021/12/07 08:24:18;;;;;;;2.87;1.53;;;21.70;43.60;;;;;;4954685;29;20518;-23
2021/12/07 08:30:16;;;;;;;1.93;1.40;;;21.70;43.80;;;;;;4955865;29;20694;-24
2021/12/07 08:32:47;;;;;;;4.33;1.87;;;21.60;43.90;;;;;;4954044;29;20174;-24
2021/12/07 08:35:31;;;;;;;2.20;1.50;;;21.50;44.00;;;;;;4936250;29;20229;-24
2021/12/07 08:38:22;;;;;;;2.80;1.60;;;21.50;44.10;;;;;;4953398;28;20199;-24
2021/12/07 08:44:21;;;;;;;3.17;1.30;;;21.80;43.80;;;;;;4953071;29;20365;-24
2021/12/07 08:46:48;;;;;;;2.80;1.40;;;22.30;43.40;;;;;;4955321;29;20448;-23
2021/12/07 08:49:28;;;;;;;2.13;1.40;;;22.80;43.00;;;;;;4955244;29;20241;-25
2021/12/07 08:52:25;;;;;;;3.03;1.53;;;23.10;42.50;;;;;;4954401;29;20461;-24
2021/12/07 09:00:50;;;;;;;1.73;1.37;;;24.10;41.30;;;;;;4954639;29;20214;-21
2021/12/07 09:06:32;;;;;;;2.77;1.60;;;24.30;41.10;;;;;;4953956;29;20549;-23
2021/12/07 09:09:38;;;;;;;2.90;1.60;;;24.30;41.10;;;;;;4936458;29;20239;-22
2021/12/07 09:12:34;;;;;;;2.67;1.43;;;24.00;41.20;;;;;;4937032;29;20195;-25
2021/12/07 09:15:47;;;;;;;2.17;1.57;;;23.80;41.40;;;;;;4954375;29;20220;-26
2021/12/07 09:18:37;;;;;;;3.73;1.60;;;23.50;41.80;;;;;;4952953;29;20362;-24
2021/12/07 09:24:40;;;;;;;1.83;1.47;;;22.90;42.50;;;;;;4954771;29;20217;-24
2021/12/07 09:27:15;;;;;;;2.87;1.40;;;22.70;42.70;;;;;;4954007;29;20203;-23
2021/12/07 09:33:34;;;;;;;4.20;1.70;;;22.90;42.70;;;;;;4953626;29;20263;-23
2021/12/07 09:39:29;;;;;;;4.30;1.50;;;23.50;42.10;;;;;;4954774;29;20260;-25
2021/12/07 09:42:16;;;;;;;2.87;1.50;;;23.70;41.90;;;;;;4954175;29;20202;-23
2021/12/07 09:44:48;;;;;;;2.17;1.50;;;24.10;41.50;;;;;;4954676;29;20188;-25
2021/12/07 09:47:32;;;;;;;1.53;1.20;;;24.30;41.30;;;;;;4937228;29;20266;-24
2021/12/07 09:56:30;;;;;;;2.17;1.33;;;24.60;40.90;;;;;;4954565;29;20275;-22
2021/12/07 09:59:04;;;;;;;2.07;1.33;;;24.50;40.90;;;;;;4936841;29;20301;-24
2021/12/07 10:05:04;;;;;;;2.83;1.80;;;24.30;41.30;;;;;;4953548;29;20290;-22
2021/12/07 10:11:00;;;;;;;2.37;1.70;;;24.10;41.40;;;;;;4953346;29;20627;-23
2021/12/07 10:17:01;;;;;;;2.10;1.50;;;23.70;41.80;;;;;;4957967;29;20523;-24
2021/12/07 10:20:17;;;;;;;2.77;1.70;;;23.50;42.10;;;;;;4958154;29;20222;-24
2021/12/07 10:23:04;;;;;;;2.00;1.37;;;23.20;42.40;;;;;;4958487;29;20259;-27
2021/12/07 10:29:05;;;;;;;2.00;1.40;;;22.80;42.70;;;;;;4957695;29;20265;-24
2021/12/07 10:45:13;;;;;;;2.57;1.47;;;21.70;44.30;;;;;;4954174;29;20258;-25
2021/12/07 10:51:15;;;;;;;3.00;1.47;;;21.70;44.50;;;;;;4952764;29;20538;-24
2021/12/07 11:13:35;;;;;;;4.83;1.80;;;23.90;42.20;;;;;;4960811;29;20266;-26
2021/12/07 11:19:26;;;;;;;3.33;1.70;;;24.10;41.90;;;;;;4957456;29;20591;-26
2021/12/07 11:22:35;;;;;;;3.70;1.90;;;24.10;41.70;;;;;;4957044;29;20202;-26
2021/12/07 11:41:36;;;;;;;5.57;2.03;;;23.70;42.20;;;;;;4956041;29;20284;-26
2021/12/07 11:48:12;;;;;;;5.60;2.10;;;23.30;42.70;;;;;;4956701;29;20279;-25
2021/12/07 11:50:45;;;;;;;4.70;1.70;;;23.00;42.90;;;;;;4957950;29;20207;-25
2021/12/07 11:53:14;;;;;;;5.67;2.10;;;22.80;43.10;;;;;;4957996;29;20316;-22
2021/12/07 11:55:45;;;;;;;4.63;1.90;;;22.80;43.30;;;;;;4956801;29;20218;-24
2021/12/07 11:58:12;;;;;;;4.00;1.90;;;22.70;43.40;;;;;;4952224;29;20199;-23
2021/12/07 12:00:45;;;;;;;3.70;1.93;;;22.60;43.50;;;;;;4974875;28;20195;-26
2021/12/07 12:03:14;;;;;;;5.07;2.03;;;22.60;43.60;;;;;;4974443;28;20210;-24
2021/12/07 12:05:43;;;;;;;4.37;1.87;;;22.50;43.70;;;;;;4977127;28;20580;-25
2021/12/07 12:08:09;;;;;;;4.77;2.00;;;22.50;43.70;;;;;;4975584;28;20242;-25
2021/12/07 12:10:38;;;;;;;4.30;1.70;;;22.30;43.80;;;;;;4973879;28;20588;-21
2021/12/07 12:13:31;;;;;;;2.47;1.67;;;22.10;44.10;;;;;;4954325;28;20199;-23
2021/12/07 12:16:18;;;;;;;3.57;1.47;;;21.90;44.30;;;;;;4971549;28;20220;-26
2021/12/07 12:19:23;;;;;;;2.83;1.60;;;21.60;44.60;;;;;;4976205;28;20198;-26
2021/12/07 12:21:57;;;;;;;2.30;1.70;;;21.40;44.90;;;;;;4978463;28;20680;-26
2021/12/07 12:24:40;;;;;;;4.93;2.10;;;21.20;45.30;;;;;;4978801;28;20208;-22
2021/12/07 12:27:06;;;;;;;3.67;1.90;;;21.00;45.60;;;;;;4975044;28;20206;-25
2021/12/07 12:29:35;;;;;;;5.83;1.90;;;21.10;45.60;;;;;;4955298;28;20216;-23
2021/12/07 12:32:01;;;;;;;4.93;1.80;;;21.70;45.20;;;;;;4974494;28;20205;-24
2021/12/07 12:34:30;;;;;;;5.13;2.00;;;22.50;44.50;;;;;;4957241;28;20470;-24
2021/12/07 12:37:00;;;;;;;5.53;2.17;;;23.00;43.80;;;;;;4972339;28;20496;-24
2021/12/07 12:39:49;;;;;;;2.83;1.80;;;23.70;43.10;;;;;;4956874;28;20202;-28
2021/12/07 12:42:37;;;;;;;4.27;1.70;;;24.50;42.30;;;;;;4974114;28;20595;-25
2021/12/07 12:45:18;;;;;;;3.20;1.63;;;24.90;41.60;;;;;;4976010;28;20666;-25
2021/12/07 12:47:44;;;;;;;3.73;1.77;;;24.80;41.60;;;;;;4957491;28;20207;-24
2021/12/07 12:50:14;;;;;;;4.60;1.90;;;24.50;41.70;;;;;;4968717;28;20205;-23
2021/12/07 12:52:52;;;;;;;2.83;1.53;;;24.40;41.90;;;;;;4972867;28;20467;-24
2021/12/07 12:55:34;;;;;;;2.83;1.70;;;24.50;42.00;;;;;;4956326;28;20210;-25
2021/12/07 12:58:02;;;;;;;3.90;2.00;;;24.40;42.10;;;;;;4941192;28;20608;-26
2021/12/07 13:01:05;;;;;;;6.77;2.10;;;24.20;42.20;;;;;;4952959;28;20568;-21
2021/12/07 13:03:45;;;;;;;4.53;2.20;;;24.30;42.30;;;;;;4972038;28;20285;-24
2021/12/07 13:06:16;;;;;;;3.40;1.70;;;24.00;42.60;;;;;;4971335;28;20632;-25
2021/12/07 13:09:00;;;;;;;4.73;2.20;;;23.80;42.80;;;;;;4955483;28;20612;-27
2021/12/07 13:11:42;;;;;;;3.87;2.27;;;23.50;43.10;;;;;;4974594;28;20201;-23
2021/12/07 13:14:27;;;;;;;4.90;1.80;;;23.20;43.40;;;;;;4956112;28;20249;-24
2021/12/07 13:17:17;;;;;;;3.87;1.87;;;23.20;43.70;;;;;;4954636;28;20203;-27
2021/12/07 13:20:10;;;;;;;3.57;1.80;;;22.80;43.90;;;;;;4974252;28;20293;-25
2021/12/07 13:22:40;;;;;;;3.17;1.80;;;22.60;44.20;;;;;;4972786;28;20190;-24
2021/12/07 13:25:09;;;;;;;4.03;2.00;;;22.20;44.50;;;;;;4969841;28;20195;-23
2021/12/07 13:27:36;;;;;;;4.03;1.57;;;22.00;44.80;;;;;;4970883;28;20166;-24
2021/12/07 13:30:05;;;;;;;5.80;2.10;;;21.80;45.00;;;;;;4972535;28;20217;-23
2021/12/07 13:32:31;;;;;;;6.07;2.10;;;21.60;45.30;;;;;;4971763;28;20205;-24
2021/12/07 13:35:05;;;;;;;4.57;1.90;;;21.30;45.60;;;;;;4971402;28;20206;-24
2021/12/07 13:37:51;;;;;;;2.90;1.97;;;21.30;45.80;;;;;;4971880;28;20190;-25
2021/12/07 13:40:22;;;;;;;4.43;1.87;;;21.10;46.10;;;;;;4954014;28;20205;-26
2021/12/07 13:42:51;;;;;;;3.87;2.23;;;20.90;46.30;;;;;;4971894;28;20465;-28
2021/12/07 13:45:21;;;;;;;3.07;1.97;;;20.70;46.50;;;;;;4954125;28;20204;-25
2021/12/07 13:47:51;;;;;;;3.53;1.80;;;20.70;46.70;;;;;;4955176;28;20252;-24
2021/12/07 13:50:26;;;;;;;6.20;2.20;;;20.80;46.60;;;;;;4953035;28;20270;-27
2021/12/07 13:52:54;;;;;;;3.00;1.67;;;21.00;46.40;;;;;;4953205;28;20193;-23
2021/12/07 13:55:32;;;;;;;4.17;1.80;;;21.50;46.20;;;;;;4953193;28;20198;-24
2021/12/07 13:58:00;;;;;;;5.87;2.20;;;22.10;45.50;;;;;;4927758;28;20200;-26
2021/12/07 14:00:32;;;;;;;3.97;2.00;;;22.80;44.60;;;;;;4975331;28;20197;-27
2021/12/07 14:03:07;;;;;;;3.90;1.97;;;23.70;43.70;;;;;;4972461;28;20202;-26
2021/12/07 14:05:46;;;;;;;4.37;2.07;;;24.00;43.00;;;;;;4974966;28;20202;-25
2021/12/07 14:08:14;;;;;;;3.03;1.90;;;24.30;42.70;;;;;;4953067;28;20230;-25
2021/12/07 14:10:53;;;;;;;3.27;1.60;;;24.50;42.30;;;;;;4975953;28;20267;-26
2021/12/07 14:13:20;;;;;;;4.73;1.90;;;24.70;42.10;;;;;;4974733;28;20213;-23
2021/12/07 14:15:50;;;;;;;4.27;2.00;;;24.60;42.00;;;;;;4973881;28;20191;-24
2021/12/07 14:18:18;;;;;;;4.10;1.87;;;24.30;42.10;;;;;;4959794;28;20596;-23
2021/12/07 14:20:55;;;;;;;3.53;1.77;;;23.90;42.50;;;;;;4960286;28;20260;-28
2021/12/07 14:23:29;;;;;;;3.50;2.07;;;23.70;42.80;;;;;;4972086;28;20199;-24
2021/12/07 14:25:56;;;;;;;4.47;1.90;;;23.40;43.10;;;;;;4954982;28;20199;-25
2021/12/07 14:28:30;;;;;;;5.87;2.13;;;23.10;43.20;;;;;;4957416;28;20630;-27
2021/12/07 14:31:34;;;;;;;6.43;1.97;;;22.80;43.60;;;;;;4954122;28;20203;-26
2021/12/07 14:34:06;;;;;;;4.47;1.97;;;22.60;43.90;;;;;;4972660;28;20295;-24
2021/12/07 14:36:51;;;;;;;3.43;1.90;;;22.40;44.20;;;;;;4952513;28;20203;-24
2021/12/07 14:39:18;;;;;;;2.90;1.53;;;22.00;44.40;;;;;;4957079;28;20290;-24
2021/12/07 14:41:55;;;;;;;3.93;2.23;;;21.70;44.90;;;;;;4970229;28;20206;-26
2021/12/07 14:44:29;;;;;;;3.93;1.70;;;21.40;44.90;;;;;;4976093;28;20286;-25
2021/12/07 14:47:00;;;;;;;3.20;1.73;;;21.10;45.60;;;;;;4976709;28;20198;-27
2021/12/07 14:49:27;;;;;;;3.60;1.83;;;20.80;45.60;;;;;;4975761;28;20224;-26
2021/12/07 14:51:53;;;;;;;5.63;1.97;;;20.70;46.10;;;;;;4959700;28;20190;-26
2021/12/07 14:54:19;;;;;;;3.53;1.63;;;20.50;46.30;;;;;;4975503;28;20184;-28
2021/12/07 14:56:46;;;;;;;4.03;1.63;;;20.40;46.50;;;;;;4975476;28;20277;-26
2021/12/07 14:59:18;;;;;;;3.87;1.70;;;20.20;46.70;;;;;;4959342;28;20200;-24
2021/12/07 15:01:53;;;;;;;4.50;1.97;;;20.20;47.00;;;;;;4975443;28;20272;-25
2021/12/07 15:04:20;;;;;;;2.70;1.40;;;20.40;46.90;;;;;;4959307;28;20303;-25
2021/12/07 15:06:50;;;;;;;3.13;1.70;;;20.50;46.60;;;;;;4976100;28;20253;-25
2021/12/07 15:09:17;;;;;;;4.23;1.97;;;20.90;46.40;;;;;;4959005;28;20503;-24
2021/12/07 15:11:47;;;;;;;4.47;1.80;;;21.50;45.80;;;;;;4958752;28;20278;-24
2021/12/07 15:14:25;;;;;;;4.07;1.70;;;22.30;44.90;;;;;;4959124;28;20613;-24
2021/12/07 15:16:54;;;;;;;3.07;1.50;;;23.30;43.90;;;;;;4975426;28;20752;-24
2021/12/07 15:19:22;;;;;;;3.03;1.50;;;24.00;42.90;;;;;;4976113;28;20201;-25
2021/12/07 15:21:48;;;;;;;3.90;1.80;;;24.30;42.30;;;;;;4958604;28;20201;-24
2021/12/07 15:24:18;;;;;;;3.53;1.60;;;24.40;42.00;;;;;;4975815;28;20254;-27
2021/12/07 15:26:44;;;;;;;4.97;1.70;;;24.40;41.90;;;;;;4975801;28;20207;-23
2021/12/07 15:29:19;;;;;;;3.53;1.63;;;24.30;41.80;;;;;;4974536;28;20242;-24
2021/12/07 15:31:50;;;;;;;2.90;1.43;;;24.20;42.00;;;;;;4971578;28;20199;-26
2021/12/07 15:34:19;;;;;;;2.73;1.60;;;24.00;42.10;;;;;;4976019;28;20203;-26
2021/12/07 15:36:48;;;;;;;2.90;1.70;;;23.90;42.10;;;;;;4975048;28;20187;-25
2021/12/07 15:39:18;;;;;;;2.27;1.60;;;23.80;42.20;;;;;;4958205;28;20199;-24
2021/12/07 15:41:55;;;;;;;3.37;1.80;;;23.60;42.30;;;;;;4959225;28;20198;-25
2021/12/07 15:44:30;;;;;;;4.57;1.97;;;23.20;42.60;;;;;;4958451;28;20179;-25
2021/12/07 15:47:08;;;;;;;3.73;1.93;;;22.80;43.00;;;;;;4960654;28;20610;-26
2021/12/07 15:49:36;;;;;;;3.93;1.97;;;22.30;43.50;;;;;;4978847;28;20206;-22
2021/12/07 15:52:09;;;;;;;3.07;1.73;;;21.90;43.90;;;;;;4962901;28;20265;-25
2021/12/07 15:54:36;;;;;;;4.37;1.90;;;21.50;44.20;;;;;;4978770;28;20212;-24
2021/12/07 15:57:07;;;;;;;4.80;1.80;;;21.30;44.60;;;;;;4961726;28;20529;-25
2021/12/07 15:59:35;;;;;;;3.73;1.80;;;21.00;45.00;;;;;;4962420;28;20762;-24
2021/12/07 16:02:02;;;;;;;3.23;1.87;;;20.70;45.70;;;;;;4962261;28;20205;-25
2021/12/07 16:04:34;;;;;;;2.87;1.73;;;20.50;45.60;;;;;;4958669;28;20484;-26
2021/12/07 16:07:00;;;;;;;2.87;1.60;;;20.30;45.80;;;;;;4959247;28;20193;-25
2021/12/07 16:09:26;;;;;;;2.97;1.60;;;20.20;45.80;;;;;;4979061;28;20662;-23
2021/12/07 16:11:52;;;;;;;3.40;1.73;;;20.00;46.10;;;;;;4976187;28;20560;-24
2021/12/07 16:14:28;;;;;;;2.50;1.60;;;20.00;46.30;;;;;;4962602;28;20193;-25
2021/12/07 16:16:57;;;;;;;2.70;1.60;;;20.20;46.50;;;;;;4961128;28;20194;-26
2021/12/07 16:19:23;;;;;;;3.40;1.73;;;20.50;46.10;;;;;;4979034;28;20717;-24
2021/12/07 16:21:49;;;;;;;4.10;1.93;;;20.90;45.80;;;;;;4978437;28;20253;-24
2021/12/07 16:24:18;;;;;;;2.67;1.60;;;21.70;45.00;;;;;;4961339;28;20238;-24
2021/12/07 16:26:49;;;;;;;3.57;1.87;;;22.60;43.90;;;;;;4960442;28;20505;-23
2021/12/07 16:29:16;;;;;;;3.17;1.67;;;23.10;43.00;;;;;;4961326;28;20221;-26
2021/12/07 16:31:42;;;;;;;4.67;1.90;;;23.00;42.80;;;;;;4978334;28;20635;-23
2021/12/07 16:34:08;;;;;;;3.27;1.40;;;22.80;42.70;;;;;;4962068;28;20736;-25
2021/12/07 16:36:34;;;;;;;4.87;1.73;;;22.40;43.20;;;;;;4960869;28;20645;-25
2021/12/07 16:39:02;;;;;;;2.83;1.50;;;22.40;43.30;;;;;;4962016;28;20277;-24
2021/12/07 16:41:28;;;;;;;2.63;1.60;;;21.90;43.50;;;;;;4961172;28;20202;-24
2021/12/07 16:44:00;;;;;;;3.10;1.63;;;21.80;44.10;;;;;;4961609;28;20602;-23
2021/12/07 16:46:25;;;;;;;2.37;1.50;;;21.60;44.30;;;;;;4978008;28;20297;-25
2021/12/07 16:48:52;;;;;;;2.63;1.43;;;21.60;44.40;;;;;;4977817;28;20304;-24
2021/12/07 16:51:19;;;;;;;3.80;1.73;;;21.70;44.20;;;;;;4959176;28;20215;-25